Time;durP1;ratioP1;P1;durP2;ratioP2;P2;SDS_P1;SDS_P2;PMS_P1;PMS_P2;Temp;Humidity;BMP_temperature;BMP_pressure;BME280_temperature;BME280_humidity;BME280_pressure;Samples;Min_cycle;Max_cycle;Signal;HPM_P1;HPM_P2
2023/06/02 00:00:48;;;;;;;13.07;8.33;;;;;;;;;;5049191;28;20310;-77
2023/06/02 00:03:15;;;;;;;12.40;8.80;;;;;;;;;;5049245;28;20220;-77
2023/06/02 00:05:44;;;;;;;11.43;6.30;;;;;;;;;;5049406;28;20205;-77
2023/06/02 00:08:12;;;;;;;7.03;4.40;;;;;;;;;;5048162;28;20668;-78
2023/06/02 00:10:39;;;;;;;4.73;4.27;;;;;;;;;;5049322;28;20209;-77
2023/06/02 00:13:07;;;;;;;9.77;7.47;;;;;;;;;;5039449;28;20204;-78
2023/06/02 00:15:34;;;;;;;5.73;4.80;;;;;;;;;;5048651;28;20263;-77
2023/06/02 00:18:01;;;;;;;6.83;5.40;;;;;;;;;;5035802;28;20601;-77
2023/06/02 00:20:28;;;;;;;9.17;5.67;;;;;;;;;;5048629;28;20207;-78
2023/06/02 00:22:57;;;;;;;8.33;5.60;;;;;;;;;;5048852;28;20207;-78
2023/06/02 00:25:25;;;;;;;6.33;5.23;;;;;;;;;;5049048;28;20204;-78
2023/06/02 00:27:52;;;;;;;7.00;6.27;;;;;;;;;;5035151;28;20662;-77
2023/06/02 00:30:18;;;;;;;6.30;5.63;;;;;;;;;;5048950;28;20213;-77
2023/06/02 00:32:45;;;;;;;16.27;5.73;;;;;;;;;;5048633;28;20199;-77
2023/06/02 00:35:12;;;;;;;5.87;5.07;;;;;;;;;;5048483;28;20226;-78
2023/06/02 00:37:39;;;;;;;6.73;4.40;;;;;;;;;;5022630;28;20680;-77
2023/06/02 00:40:08;;;;;;;6.80;5.03;;;;;;;;;;5048044;28;20232;-78
2023/06/02 00:42:36;;;;;;;6.37;5.50;;;;;;;;;;5047849;28;20200;-77
2023/06/02 00:45:03;;;;;;;5.97;5.40;;;;;;;;;;5048340;28;20238;-78
2023/06/02 00:47:30;;;;;;;4.73;4.33;;;;;;;;;;5047980;28;20213;-77
2023/06/02 00:49:57;;;;;;;6.87;4.70;;;;;;;;;;5048708;28;20205;-78
2023/06/02 00:52:24;;;;;;;6.93;5.60;;;;;;;;;;5047998;28;20292;-78
2023/06/02 00:54:50;;;;;;;5.77;4.73;;;;;;;;;;5048101;28;20228;-77
2023/06/02 00:57:17;;;;;;;5.97;5.47;;;;;;;;;;5048161;28;20718;-77
2023/06/02 00:59:46;;;;;;;5.60;4.77;;;;;;;;;;5048082;28;20292;-77
2023/06/02 01:02:13;;;;;;;5.47;4.97;;;;;;;;;;5048473;28;20251;-77
2023/06/02 01:04:40;;;;;;;5.07;4.57;;;;;;;;;;5048310;28;20316;-77
2023/06/02 01:07:08;;;;;;;5.80;4.53;;;;;;;;;;5047830;28;20637;-77
2023/06/02 01:09:35;;;;;;;5.40;4.77;;;;;;;;;;5048439;28;20564;-77
2023/06/02 01:12:02;;;;;;;5.00;4.60;;;;;;;;;;5047861;28;20254;-77
2023/06/02 01:14:29;;;;;;;7.23;5.33;;;;;;;;;;5045404;28;20227;-78
2023/06/02 01:16:57;;;;;;;6.60;5.53;;;;;;;;;;5048142;28;20269;-79
2023/06/02 01:19:26;;;;;;;6.03;5.27;;;;;;;;;;5047902;28;20690;-77
2023/06/02 01:21:58;;;;;;;4.93;4.50;;;;;;;;;;5048331;28;20205;-77
2023/06/02 01:24:30;;;;;;;7.20;5.10;;;;;;;;;;5047612;28;20206;-77
2023/06/02 01:26:58;;;;;;;5.47;4.90;;;;;;;;;;5047666;28;20215;-78
2023/06/02 01:29:25;;;;;;;4.87;4.00;;;;;;;;;;5048417;28;20258;-77
2023/06/02 01:31:53;;;;;;;5.37;4.90;;;;;;;;;;5047780;28;20210;-77
2023/06/02 01:34:26;;;;;;;6.30;4.73;;;;;;;;;;5047364;28;20217;-77
2023/06/02 01:36:56;;;;;;;6.47;4.63;;;;;;;;;;5047519;28;20205;-77
2023/06/02 01:39:23;;;;;;;5.23;4.73;;;;;;;;;;5048345;28;20250;-77
2023/06/02 01:41:52;;;;;;;7.20;5.20;;;;;;;;;;5047788;28;20206;-78
2023/06/02 01:44:19;;;;;;;5.83;5.33;;;;;;;;;;5047340;28;20206;-77
2023/06/02 01:46:46;;;;;;;8.70;5.30;;;;;;;;;;5047376;28;20752;-78
2023/06/02 01:49:16;;;;;;;6.77;4.43;;;;;;;;;;5047799;28;20232;-77
2023/06/02 01:51:43;;;;;;;6.67;5.10;;;;;;;;;;5047175;28;20596;-77
2023/06/02 01:54:10;;;;;;;10.20;6.30;;;;;;;;;;5048969;28;20225;-77
2023/06/02 01:56:37;;;;;;;8.47;4.57;;;;;;;;;;5050102;28;20218;-77
2023/06/02 01:59:05;;;;;;;5.30;4.80;;;;;;;;;;5051242;28;20209;-78
2023/06/02 02:01:33;;;;;;;7.23;4.27;;;;;;;;;;5050778;28;20289;-78
2023/06/02 02:04:00;;;;;;;6.23;4.23;;;;;;;;;;5050595;28;20209;-78
2023/06/02 02:06:29;;;;;;;7.53;5.63;;;;;;;;;;5050905;28;20202;-78
2023/06/02 02:08:56;;;;;;;7.00;4.93;;;;;;;;;;5046732;28;20390;-78
2023/06/02 02:11:23;;;;;;;7.50;4.93;;;;;;;;;;5037655;28;20231;-77
2023/06/02 02:13:51;;;;;;;7.90;4.83;;;;;;;;;;5029894;28;20203;-77
2023/06/02 02:16:20;;;;;;;6.80;5.43;;;;;;;;;;5050331;28;20594;-77
2023/06/02 02:18:47;;;;;;;7.10;4.87;;;;;;;;;;5050831;28;20211;-77
2023/06/02 02:21:16;;;;;;;7.27;5.00;;;;;;;;;;5050503;28;20198;-77
2023/06/02 02:23:43;;;;;;;5.50;4.97;;;;;;;;;;5050484;28;20680;-77
2023/06/02 02:26:09;;;;;;;13.03;5.13;;;;;;;;;;5050438;28;20209;-78
2023/06/02 02:28:37;;;;;;;6.00;4.90;;;;;;;;;;5050641;28;20202;-77
2023/06/02 02:31:04;;;;;;;6.63;4.80;;;;;;;;;;5043271;28;20678;-78
2023/06/02 02:33:32;;;;;;;5.90;4.63;;;;;;;;;;5030495;28;20259;-77
2023/06/02 02:35:59;;;;;;;6.87;5.30;;;;;;;;;;5048599;28;20290;-78
2023/06/02 02:38:25;;;;;;;9.53;5.27;;;;;;;;;;5042406;28;20738;-78
2023/06/02 02:40:52;;;;;;;9.57;5.37;;;;;;;;;;5018772;28;20257;-77
2023/06/02 02:43:19;;;;;;;7.60;4.97;;;;;;;;;;5046197;28;20396;-77
2023/06/02 02:45:46;;;;;;;14.03;5.20;;;;;;;;;;5050651;28;20229;-77
2023/06/02 02:48:13;;;;;;;7.07;5.60;;;;;;;;;;5049898;28;20237;-77
2023/06/02 02:50:41;;;;;;;5.13;4.63;;;;;;;;;;5050456;28;20209;-77
2023/06/02 02:53:07;;;;;;;6.40;5.23;;;;;;;;;;5049857;28;20258;-78
2023/06/02 02:55:34;;;;;;;6.90;6.30;;;;;;;;;;5050371;28;20232;-77
2023/06/02 02:58:02;;;;;;;9.23;8.43;;;;;;;;;;5049887;28;21048;-78
2023/06/02 03:00:28;;;;;;;5.97;5.47;;;;;;;;;;5049909;28;20202;-77
2023/06/02 03:02:56;;;;;;;6.77;5.43;;;;;;;;;;5050220;28;20250;-77
2023/06/02 03:05:23;;;;;;;5.53;5.03;;;;;;;;;;5049220;28;20290;-78
2023/06/02 03:07:51;;;;;;;6.50;5.50;;;;;;;;;;5049529;28;20197;-78
2023/06/02 03:10:18;;;;;;;6.53;4.83;;;;;;;;;;5049883;28;20203;-78
2023/06/02 03:12:44;;;;;;;6.40;4.53;;;;;;;;;;5033464;28;20199;-78
2023/06/02 03:15:11;;;;;;;5.90;4.93;;;;;;;;;;5044067;28;20631;-78
2023/06/02 03:17:38;;;;;;;5.73;5.00;;;;;;;;;;5049114;28;20205;-78
2023/06/02 03:20:08;;;;;;;5.10;4.60;;;;;;;;;;5037620;28;20209;-78
2023/06/02 03:22:34;;;;;;;5.80;5.07;;;;;;;;;;5050260;28;20626;-78
2023/06/02 03:25:03;;;;;;;6.27;5.27;;;;;;;;;;5047853;28;20209;-78
2023/06/02 03:27:29;;;;;;;6.40;5.80;;;;;;;;;;5035415;28;20209;-77
2023/06/02 03:29:56;;;;;;;6.00;5.40;;;;;;;;;;5049579;28;20221;-77
2023/06/02 03:32:23;;;;;;;5.17;4.77;;;;;;;;;;5042690;28;20222;-77
2023/06/02 03:34:50;;;;;;;4.80;4.40;;;;;;;;;;5042280;28;20274;-78
2023/06/02 03:37:16;;;;;;;7.03;5.43;;;;;;;;;;5023483;28;20214;-78
2023/06/02 03:39:43;;;;;;;7.23;5.60;;;;;;;;;;5049377;28;20219;-78
2023/06/02 03:42:14;;;;;;;5.80;5.10;;;;;;;;;;5023788;28;20274;-78
2023/06/02 03:44:40;;;;;;;5.70;5.10;;;;;;;;;;5049881;28;20203;-78
2023/06/02 03:47:08;;;;;;;7.87;6.00;;;;;;;;;;5049610;28;20205;-78
2023/06/02 03:49:36;;;;;;;6.53;5.80;;;;;;;;;;5049660;28;20230;-78
2023/06/02 03:52:03;;;;;;;7.07;5.67;;;;;;;;;;5049288;28;20691;-78
2023/06/02 03:54:29;;;;;;;6.17;5.57;;;;;;;;;;5049089;28;20640;-78
2023/06/02 03:56:56;;;;;;;5.40;4.90;;;;;;;;;;5049377;28;20709;-78
2023/06/02 03:59:24;;;;;;;9.53;5.70;;;;;;;;;;5049263;28;20203;-78
2023/06/02 04:01:51;;;;;;;6.47;5.67;;;;;;;;;;5049171;28;20207;-78
2023/06/02 04:04:18;;;;;;;6.80;6.20;;;;;;;;;;5048622;28;20206;-78
2023/06/02 04:06:44;;;;;;;7.07;6.37;;;;;;;;;;5048998;28;20740;-78
2023/06/02 04:09:12;;;;;;;10.03;7.03;;;;;;;;;;5048738;28;20194;-78
2023/06/02 04:11:38;;;;;;;7.97;6.20;;;;;;;;;;5029378;28;20208;-78
2023/06/02 04:14:05;;;;;;;6.87;5.73;;;;;;;;;;5022536;28;20210;-78
2023/06/02 04:16:33;;;;;;;6.20;5.70;;;;;;;;;;5049024;28;20224;-77
2023/06/02 04:19:00;;;;;;;6.77;5.73;;;;;;;;;;5049079;28;20199;-78
2023/06/02 04:21:27;;;;;;;6.27;5.60;;;;;;;;;;5041731;28;20202;-78
2023/06/02 04:23:54;;;;;;;8.23;7.43;;;;;;;;;;5041325;28;20199;-78
2023/06/02 04:26:20;;;;;;;7.63;6.93;;;;;;;;;;5048834;28;20298;-78
2023/06/02 04:28:47;;;;;;;7.43;6.23;;;;;;;;;;5048028;28;20213;-78
2023/06/02 04:31:26;;;;;;;7.30;5.70;;;;;;;;;;5042241;28;20195;-78
2023/06/02 04:33:54;;;;;;;8.90;5.87;;;;;;;;;;5043429;28;20213;-78
2023/06/02 04:36:21;;;;;;;7.27;6.23;;;;;;;;;;5048740;28;20236;-79
2023/06/02 04:38:48;;;;;;;7.47;5.40;;;;;;;;;;5048315;28;20213;-78
2023/06/02 04:41:15;;;;;;;8.33;6.10;;;;;;;;;;5034068;28;20276;-78
2023/06/02 04:43:42;;;;;;;6.17;5.67;;;;;;;;;;5048174;28;20204;-76
2023/06/02 04:46:10;;;;;;;9.77;6.13;;;;;;;;;;5048223;28;20771;-75
2023/06/02 04:48:39;;;;;;;5.67;4.87;;;;;;;;;;5048580;28;20298;-77
2023/06/02 04:51:07;;;;;;;6.47;5.40;;;;;;;;;;5047643;28;20689;-75
2023/06/02 04:53:34;;;;;;;6.67;6.07;;;;;;;;;;5046860;28;20231;-75
2023/06/02 04:56:01;;;;;;;6.00;5.40;;;;;;;;;;5047340;28;20230;-75
2023/06/02 04:58:27;;;;;;;6.10;5.60;;;;;;;;;;5047610;28;20214;-75
2023/06/02 05:00:54;;;;;;;5.33;4.43;;;;;;;;;;5048217;28;20252;-78
2023/06/02 05:03:21;;;;;;;7.40;5.07;;;;;;;;;;5047748;28;20266;-78
2023/06/02 05:05:48;;;;;;;5.47;4.97;;;;;;;;;;5047916;28;20198;-78
2023/06/02 05:08:16;;;;;;;8.13;4.53;;;;;;;;;;5048405;28;20207;-75
2023/06/02 05:10:43;;;;;;;8.53;4.97;;;;;;;;;;5047967;28;20209;-75
2023/06/02 05:13:09;;;;;;;5.97;5.33;;;;;;;;;;5047868;28;20202;-75
2023/06/02 05:15:36;;;;;;;5.63;4.93;;;;;;;;;;5048013;28;20228;-75
2023/06/02 05:18:03;;;;;;;6.53;4.73;;;;;;;;;;5047371;28;20208;-75
2023/06/02 05:20:30;;;;;;;11.80;5.47;;;;;;;;;;5048033;28;20269;-76
2023/06/02 05:22:57;;;;;;;13.33;6.13;;;;;;;;;;5047407;28;20208;-76
2023/06/02 05:25:25;;;;;;;7.67;5.37;;;;;;;;;;5048281;28;20204;-76
2023/06/02 05:27:52;;;;;;;4.57;4.17;;;;;;;;;;5047930;28;20205;-76
2023/06/02 05:30:18;;;;;;;5.27;4.73;;;;;;;;;;5047146;28;20768;-76
2023/06/02 05:32:45;;;;;;;4.77;4.37;;;;;;;;;;5047655;28;20257;-76
2023/06/02 05:35:12;;;;;;;5.07;4.53;;;;;;;;;;5047636;28;20708;-77
2023/06/02 05:37:39;;;;;;;6.60;4.90;;;;;;;;;;5047135;28;20206;-76
2023/06/02 05:40:06;;;;;;;16.70;5.63;;;;;;;;;;5048213;28;20206;-77
2023/06/02 05:42:34;;;;;;;5.23;4.57;;;;;;;;;;5047806;28;20202;-77
2023/06/02 05:45:05;;;;;;;5.53;4.90;;;;;;;;;;5047260;28;20680;-78
2023/06/02 05:47:32;;;;;;;5.17;4.67;;;;;;;;;;5047378;28;20198;-77
2023/06/02 05:49:59;;;;;;;8.63;4.23;;;;;;;;;;5033631;28;20267;-76
2023/06/02 05:52:25;;;;;;;5.07;4.57;;;;;;;;;;5035015;28;20204;-77
2023/06/02 05:54:52;;;;;;;6.57;4.70;;;;;;;;;;5047582;28;20213;-77
2023/06/02 05:57:19;;;;;;;6.10;4.67;;;;;;;;;;5047335;28;20213;-77
2023/06/02 05:59:47;;;;;;;6.43;5.20;;;;;;;;;;5047412;28;20206;-77
2023/06/02 06:02:14;;;;;;;5.27;4.77;;;;;;;;;;5047324;28;20623;-77
2023/06/02 06:04:40;;;;;;;5.03;4.53;;;;;;;;;;5047770;28;20205;-77
2023/06/02 06:07:07;;;;;;;4.73;4.33;;;;;;;;;;5047147;28;20214;-77
2023/06/02 06:09:34;;;;;;;5.40;4.40;;;;;;;;;;5047304;28;20202;-77
2023/06/02 06:12:00;;;;;;;5.47;4.57;;;;;;;;;;5047537;28;20205;-76
2023/06/02 06:14:27;;;;;;;5.23;4.73;;;;;;;;;;5046596;28;20246;-77
2023/06/02 06:16:58;;;;;;;5.60;4.97;;;;;;;;;;5046822;28;21006;-77
2023/06/02 06:19:25;;;;;;;5.27;4.57;;;;;;;;;;5047788;28;20254;-77
2023/06/02 06:21:52;;;;;;;6.03;4.23;;;;;;;;;;5047176;28;20225;-77
2023/06/02 06:24:19;;;;;;;4.63;4.23;;;;;;;;;;5044112;28;20224;-77
2023/06/02 06:26:45;;;;;;;6.87;3.77;;;;;;;;;;5027606;28;20207;-77
2023/06/02 06:29:12;;;;;;;5.23;4.03;;;;;;;;;;5043391;28;20627;-77
2023/06/02 06:31:39;;;;;;;5.00;3.50;;;;;;;;;;5047679;28;20210;-77
2023/06/02 06:34:08;;;;;;;3.23;2.93;;;;;;;;;;5046688;28;20206;-77
2023/06/02 06:36:35;;;;;;;7.40;3.70;;;;;;;;;;5047252;28;20715;-77
2023/06/02 06:39:02;;;;;;;3.93;3.53;;;;;;;;;;5047325;28;20198;-77
2023/06/02 06:41:28;;;;;;;4.17;3.77;;;;;;;;;;5049643;28;20282;-77
2023/06/02 06:43:55;;;;;;;3.33;3.00;;;;;;;;;;5050357;28;20568;-77
2023/06/02 06:46:22;;;;;;;3.57;3.27;;;;;;;;;;5050360;28;20213;-77
2023/06/02 06:48:50;;;;;;;6.10;3.30;;;;;;;;;;5023340;28;20229;-77
2023/06/02 06:51:19;;;;;;;4.47;3.73;;;;;;;;;;5050151;28;20703;-77
2023/06/02 06:53:45;;;;;;;5.43;4.23;;;;;;;;;;5050397;28;20202;-78
2023/06/02 06:56:12;;;;;;;3.73;3.37;;;;;;;;;;5049883;28;20221;-77
2023/06/02 06:58:39;;;;;;;4.47;3.83;;;;;;;;;;5049642;28;20202;-77
2023/06/02 07:01:05;;;;;;;4.67;3.47;;;;;;;;;;5050466;28;20206;-77
2023/06/02 07:03:32;;;;;;;4.23;3.83;;;;;;;;;;5049843;28;20194;-77
2023/06/02 07:05:59;;;;;;;6.07;4.03;;;;;;;;;;5049745;28;20258;-77
2023/06/02 07:08:28;;;;;;;5.77;3.90;;;;;;;;;;5049907;28;20198;-77
2023/06/02 07:10:55;;;;;;;4.33;3.67;;;;;;;;;;5049983;28;20236;-77
2023/06/02 07:13:22;;;;;;;5.40;4.57;;;;;;;;;;5049262;28;20202;-77
2023/06/02 07:15:49;;;;;;;4.53;3.83;;;;;;;;;;5050204;28;20236;-77
2023/06/02 07:18:16;;;;;;;4.60;4.20;;;;;;;;;;5049468;28;20239;-77
2023/06/02 07:20:42;;;;;;;3.97;3.60;;;;;;;;;;5050149;28;20231;-77
2023/06/02 07:23:10;;;;;;;5.70;3.90;;;;;;;;;;5049146;28;20206;-77
2023/06/02 07:25:38;;;;;;;5.30;4.43;;;;;;;;;;5049998;28;20205;-77
2023/06/02 07:28:05;;;;;;;5.60;4.50;;;;;;;;;;5049475;28;20206;-77
2023/06/02 07:30:32;;;;;;;5.47;4.97;;;;;;;;;;5049520;28;20691;-77
2023/06/02 07:32:59;;;;;;;6.43;4.97;;;;;;;;;;5049346;28;20270;-77
2023/06/02 07:35:26;;;;;;;5.87;5.27;;;;;;;;;;5048486;28;20206;-77
2023/06/02 07:37:53;;;;;;;7.10;4.40;;;;;;;;;;5049454;28;20202;-77
2023/06/02 07:40:20;;;;;;;5.70;4.53;;;;;;;;;;5036556;28;20229;-77
2023/06/02 07:42:48;;;;;;;8.37;5.23;;;;;;;;;;5049115;28;20293;-77
2023/06/02 07:45:15;;;;;;;9.33;5.60;;;;;;;;;;5049157;28;20579;-77
2023/06/02 07:47:41;;;;;;;6.53;4.20;;;;;;;;;;5049155;28;20695;-77
2023/06/02 07:50:09;;;;;;;6.40;5.00;;;;;;;;;;5049327;28;20263;-77
2023/06/02 07:52:36;;;;;;;5.97;4.27;;;;;;;;;;5048886;28;20205;-77
2023/06/02 07:55:03;;;;;;;6.77;5.00;;;;;;;;;;5049038;28;20296;-77
2023/06/02 07:57:29;;;;;;;6.23;4.80;;;;;;;;;;5049173;28;20731;-77
2023/06/02 07:59:58;;;;;;;8.07;4.73;;;;;;;;;;5048223;28;20213;-77
2023/06/02 08:02:24;;;;;;;6.77;4.60;;;;;;;;;;5048852;28;20206;-77
2023/06/02 08:04:51;;;;;;;6.10;4.70;;;;;;;;;;5048584;28;20198;-77
2023/06/02 08:07:18;;;;;;;5.00;4.50;;;;;;;;;;5049423;28;20659;-77
2023/06/02 08:09:45;;;;;;;5.30;4.73;;;;;;;;;;5046573;28;20222;-77
2023/06/02 08:12:12;;;;;;;4.73;4.33;;;;;;;;;;5038617;28;20205;-77
2023/06/02 08:14:38;;;;;;;5.80;4.53;;;;;;;;;;5049119;28;20324;-77
2023/06/02 08:17:07;;;;;;;4.67;4.23;;;;;;;;;;5049090;28;20226;-77
2023/06/02 08:19:35;;;;;;;5.30;4.30;;;;;;;;;;5049496;28;20198;-76
2023/06/02 08:22:02;;;;;;;8.90;4.37;;;;;;;;;;5048630;28;20636;-77
2023/06/02 08:24:29;;;;;;;4.67;4.27;;;;;;;;;;5049160;28;20229;-77
2023/06/02 08:26:56;;;;;;;4.83;4.20;;;;;;;;;;5048942;28;20262;-77
2023/06/02 08:29:23;;;;;;;5.20;4.70;;;;;;;;;;5048305;28;20672;-77
2023/06/02 08:31:50;;;;;;;5.27;4.77;;;;;;;;;;5048703;28;20209;-77
2023/06/02 08:34:20;;;;;;;4.93;3.93;;;;;;;;;;5048865;28;20207;-76
2023/06/02 08:36:51;;;;;;;6.33;5.03;;;;;;;;;;5048660;28;20320;-77
2023/06/02 08:39:18;;;;;;;9.57;4.43;;;;;;;;;;5048582;28;20197;-77
2023/06/02 08:41:47;;;;;;;5.07;4.63;;;;;;;;;;5048600;28;20206;-76
2023/06/02 08:44:14;;;;;;;6.33;5.50;;;;;;;;;;5048878;28;20225;-77
2023/06/02 08:46:41;;;;;;;6.03;4.63;;;;;;;;;;5047580;28;20206;-77
2023/06/02 08:49:14;;;;;;;5.80;5.10;;;;;;;;;;5048541;28;20226;-76
2023/06/02 08:51:44;;;;;;;4.63;4.23;;;;;;;;;;5048043;28;20206;-77
2023/06/02 08:54:11;;;;;;;6.27;4.13;;;;;;;;;;5048396;28;20586;-76
2023/06/02 08:56:40;;;;;;;6.03;4.40;;;;;;;;;;5047951;28;20644;-75
2023/06/02 08:59:07;;;;;;;4.23;3.73;;;;;;;;;;5048720;28;20230;-75
2023/06/02 09:01:33;;;;;;;6.00;4.53;;;;;;;;;;5048091;28;20268;-76
2023/06/02 09:04:00;;;;;;;5.77;4.30;;;;;;;;;;5047364;28;20587;-76
2023/06/02 09:06:28;;;;;;;5.73;5.23;;;;;;;;;;5048382;28;20214;-76
2023/06/02 09:08:58;;;;;;;4.47;4.03;;;;;;;;;;5048257;28;20227;-76
2023/06/02 09:11:26;;;;;;;6.40;4.40;;;;;;;;;;5047432;28;20672;-77
2023/06/02 09:13:54;;;;;;;4.60;4.00;;;;;;;;;;5048295;28;20236;-76
2023/06/02 09:16:23;;;;;;;5.87;4.23;;;;;;;;;;5044028;28;20230;-76
2023/06/02 09:18:57;;;;;;;4.50;3.77;;;;;;;;;;5038926;28;20206;-76
2023/06/02 09:21:27;;;;;;;5.37;4.87;;;;;;;;;;5047760;28;20208;-76
2023/06/02 09:23:54;;;;;;;5.93;3.93;;;;;;;;;;5047812;28;20217;-76
2023/06/02 09:26:24;;;;;;;5.40;4.00;;;;;;;;;;5047903;28;20202;-76
2023/06/02 09:29:06;;;;;;;4.77;4.07;;;;;;;;;;5047772;28;20761;-76
2023/06/02 09:31:46;;;;;;;3.70;3.40;;;;;;;;;;5023495;28;20640;-77
2023/06/02 09:34:13;;;;;;;5.17;3.97;;;;;;;;;;5046838;28;20202;-76
2023/06/02 09:36:40;;;;;;;4.23;3.80;;;;;;;;;;5047718;28;20229;-76
2023/06/02 09:39:08;;;;;;;5.00;4.10;;;;;;;;;;5043072;28;20195;-76
2023/06/02 09:41:36;;;;;;;4.27;3.83;;;;;;;;;;5038446;28;20275;-76
2023/06/02 09:44:04;;;;;;;6.47;4.00;;;;;;;;;;5047793;28;20206;-76
2023/06/02 09:46:39;;;;;;;4.43;4.03;;;;;;;;;;5047542;28;20220;-76
2023/06/02 09:49:07;;;;;;;5.23;4.10;;;;;;;;;;5047359;28;20664;-76
2023/06/02 09:51:35;;;;;;;4.07;3.70;;;;;;;;;;5047589;28;20205;-76
2023/06/02 09:54:03;;;;;;;4.43;3.93;;;;;;;;;;5021419;28;20262;-76
2023/06/02 09:56:37;;;;;;;5.13;4.03;;;;;;;;;;5047102;28;20229;-76
2023/06/02 09:59:06;;;;;;;5.60;3.97;;;;;;;;;;5047656;28;20202;-76
2023/06/02 10:01:33;;;;;;;4.23;3.67;;;;;;;;;;5034225;28;20750;-76
2023/06/02 10:04:00;;;;;;;6.13;3.73;;;;;;;;;;5047189;28;20732;-76
2023/06/02 10:06:40;;;;;;;6.03;4.17;;;;;;;;;;5046970;28;20198;-77
2023/06/02 10:09:18;;;;;;;4.33;3.93;;;;;;;;;;5047413;28;20702;-77
2023/06/02 10:11:52;;;;;;;4.13;3.73;;;;;;;;;;5047525;28;20629;-77
2023/06/02 10:14:33;;;;;;;4.50;3.80;;;;;;;;;;5047189;28;20752;-77
2023/06/02 10:17:12;;;;;;;5.00;3.10;;;;;;;;;;5051005;28;20233;-77
2023/06/02 10:19:51;;;;;;;6.27;3.77;;;;;;;;;;5050499;28;20198;-77
2023/06/02 10:23:14;;;;;;;4.67;3.80;;;;;;;;;;5051040;28;20208;-77
2023/06/02 10:25:54;;;;;;;4.80;3.57;;;;;;;;;;4953159;28;20211;-77
2023/06/02 10:28:21;;;;;;;4.03;3.63;;;;;;;;;;5040875;28;20478;-77
2023/06/02 10:30:49;;;;;;;4.03;3.63;;;;;;;;;;5050684;28;20198;-77
2023/06/02 10:33:16;;;;;;;4.50;4.10;;;;;;;;;;5050692;28;20202;-77
2023/06/02 10:35:59;;;;;;;5.80;3.63;;;;;;;;;;5050164;28;20205;-77
2023/06/02 10:38:27;;;;;;;4.73;3.87;;;;;;;;;;5050073;28;20257;-77
2023/06/02 10:40:54;;;;;;;3.47;3.10;;;;;;;;;;5050390;28;20202;-77
2023/06/02 10:43:22;;;;;;;4.28;3.60;;;;;;;;;;5050657;28;20692;-76
2023/06/02 10:45:50;;;;;;;4.22;3.85;;;;;;;;;;5050743;28;20639;-77
2023/06/02 10:48:39;;;;;;;5.35;4.07;;;;;;;;;;5050283;28;20230;-77
2023/06/02 10:51:07;;;;;;;5.28;3.58;;;;;;;;;;5029155;28;21109;-77
2023/06/02 10:53:35;;;;;;;3.80;3.50;;;;;;;;;;5049745;28;20583;-77
2023/06/02 10:56:39;;;;;;;5.97;3.33;;;;;;;;;;5050234;28;20205;-77
2023/06/02 10:59:07;;;;;;;4.57;3.80;;;;;;;;;;5027148;28;20208;-77
2023/06/02 11:01:51;;;;;;;5.77;4.07;;;;;;;;;;5049703;28;20259;-77
2023/06/02 11:04:24;;;;;;;7.03;3.83;;;;;;;;;;5050013;28;20248;-76
2023/06/02 11:07:18;;;;;;;3.93;3.27;;;;;;;;;;5049228;28;20217;-76
2023/06/02 11:09:45;;;;;;;6.03;3.47;;;;;;;;;;5049505;28;20677;-77
2023/06/02 11:12:12;;;;;;;4.83;3.70;;;;;;;;;;5041221;28;20737;-77
2023/06/02 11:15:13;;;;;;;4.73;3.57;;;;;;;;;;5046122;28;20198;-77
2023/06/02 11:17:42;;;;;;;4.23;3.30;;;;;;;;;;5049201;28;20773;-77
2023/06/02 11:20:10;;;;;;;4.03;3.00;;;;;;;;;;5050040;28;20213;-77
2023/06/02 11:22:37;;;;;;;5.00;3.60;;;;;;;;;;5049556;28;20238;-77
2023/06/02 11:25:05;;;;;;;4.80;3.60;;;;;;;;;;5050078;28;20233;-77
2023/06/02 11:27:37;;;;;;;4.83;2.97;;;;;;;;;;5048295;28;20209;-77
2023/06/02 11:30:08;;;;;;;4.63;3.33;;;;;;;;;;5049292;28;20704;-77
2023/06/02 11:32:35;;;;;;;5.13;3.90;;;;;;;;;;5049025;28;20198;-76
2023/06/02 11:35:05;;;;;;;3.53;3.23;;;;;;;;;;5049838;28;20210;-76
2023/06/02 11:37:33;;;;;;;4.07;3.70;;;;;;;;;;5049195;28;20233;-77
2023/06/02 11:40:00;;;;;;;17.40;8.23;;;;;;;;;;5049863;28;20615;-77
2023/06/02 11:42:34;;;;;;;9.35;5.65;;;;;;;;;;5049087;28;20194;-77
2023/06/02 11:45:01;;;;;;;5.55;3.50;;;;;;;;;;5050206;27;20575;-77
2023/06/02 11:47:28;;;;;;;4.90;3.60;;;;;;;;;;5049195;28;20211;-76
2023/06/02 11:49:55;;;;;;;9.38;3.47;;;;;;;;;;5049831;28;20206;-77
2023/06/02 11:52:23;;;;;;;6.40;3.33;;;;;;;;;;5049667;28;20241;-77
2023/06/02 11:54:51;;;;;;;3.90;3.38;;;;;;;;;;5049478;28;20282;-76
2023/06/02 11:57:31;;;;;;;7.77;3.60;;;;;;;;;;5023726;28;20226;-77
2023/06/02 12:00:09;;;;;;;6.78;3.88;;;;;;;;;;5049345;28;20206;-77
2023/06/02 12:02:38;;;;;;;4.00;3.70;;;;;;;;;;5049386;28;20241;-76
2023/06/02 12:05:10;;;;;;;7.17;3.07;;;;;;;;;;5049551;28;20246;-77
2023/06/02 12:07:40;;;;;;;3.57;3.27;;;;;;;;;;5049404;28;20255;-76
2023/06/02 12:10:07;;;;;;;4.10;3.70;;;;;;;;;;5043190;28;20207;-77
2023/06/02 12:12:34;;;;;;;5.47;3.53;;;;;;;;;;5042157;28;20680;-77
2023/06/02 12:15:13;;;;;;;4.97;4.20;;;;;;;;;;5048893;28;20202;-77
2023/06/02 12:17:45;;;;;;;4.17;3.70;;;;;;;;;;5048939;28;20600;-77
2023/06/02 12:20:12;;;;;;;3.77;3.20;;;;;;;;;;5031436;28;20211;-77
2023/06/02 12:22:54;;;;;;;9.07;3.73;;;;;;;;;;5040433;28;20262;-77
2023/06/02 12:25:21;;;;;;;5.67;3.57;;;;;;;;;;5049156;28;20783;-77
2023/06/02 12:27:48;;;;;;;9.97;4.33;;;;;;;;;;5048679;28;20237;-77
2023/06/02 12:30:16;;;;;;;4.23;3.83;;;;;;;;;;5048678;28;20202;-77
2023/06/02 12:32:43;;;;;;;7.90;3.47;;;;;;;;;;5048496;28;20202;-76
2023/06/02 12:35:10;;;;;;;3.67;3.37;;;;;;;;;;5048644;28;20617;-77
2023/06/02 12:37:37;;;;;;;3.70;3.30;;;;;;;;;;5048359;28;20249;-76
2023/06/02 12:40:06;;;;;;;4.80;3.10;;;;;;;;;;5048302;28;20692;-77
2023/06/02 12:42:33;;;;;;;5.17;3.20;;;;;;;;;;5047791;28;20198;-77
2023/06/02 12:45:00;;;;;;;3.70;3.40;;;;;;;;;;5049201;28;20198;-77
2023/06/02 12:47:28;;;;;;;4.90;3.53;;;;;;;;;;5048260;28;20213;-77
2023/06/02 12:49:54;;;;;;;5.07;3.00;;;;;;;;;;5009216;28;20226;-77
2023/06/02 12:52:22;;;;;;;4.13;3.57;;;;;;;;;;5008351;28;20261;-77
2023/06/02 12:54:48;;;;;;;4.57;3.70;;;;;;;;;;5008905;28;20299;-77
2023/06/02 12:57:18;;;;;;;3.83;3.50;;;;;;;;;;4982848;28;20204;-77
2023/06/02 12:59:44;;;;;;;4.67;3.23;;;;;;;;;;5008753;28;20200;-77
2023/06/02 13:02:11;;;;;;;4.03;3.37;;;;;;;;;;5008698;28;20207;-77
2023/06/02 13:04:38;;;;;;;3.97;3.57;;;;;;;;;;5008630;28;20199;-77
2023/06/02 13:07:06;;;;;;;3.87;2.83;;;;;;;;;;5008628;28;20269;-77
2023/06/02 13:09:33;;;;;;;4.90;3.40;;;;;;;;;;5008282;28;20670;-77
2023/06/02 13:12:00;;;;;;;5.80;3.07;;;;;;;;;;5008563;28;20207;-76
2023/06/02 13:14:28;;;;;;;5.20;3.77;;;;;;;;;;5008370;28;20207;-76
2023/06/02 13:16:55;;;;;;;4.83;3.60;;;;;;;;;;5008572;28;20211;-76
2023/06/02 13:19:24;;;;;;;3.37;3.07;;;;;;;;;;5007992;28;20240;-77
2023/06/02 13:21:51;;;;;;;3.33;3.13;;;;;;;;;;5008087;28;20237;-77
2023/06/02 13:24:18;;;;;;;3.83;3.43;;;;;;;;;;5007496;28;20211;-77
2023/06/02 13:26:45;;;;;;;4.97;3.77;;;;;;;;;;5007035;28;20281;-77
2023/06/02 13:29:12;;;;;;;4.53;4.13;;;;;;;;;;5005221;28;20478;-77
2023/06/02 13:31:41;;;;;;;5.13;3.07;;;;;;;;;;5008478;28;20225;-77
2023/06/02 13:34:07;;;;;;;4.20;3.37;;;;;;;;;;4994805;28;20574;-77
2023/06/02 13:36:34;;;;;;;3.63;3.33;;;;;;;;;;5008403;28;20267;-77
2023/06/02 13:39:02;;;;;;;5.53;3.53;;;;;;;;;;5008363;28;20603;-77
2023/06/02 13:41:29;;;;;;;5.03;3.43;;;;;;;;;;5008135;28;20211;-77
2023/06/02 13:43:56;;;;;;;5.67;3.50;;;;;;;;;;5008191;28;20595;-77
2023/06/02 13:46:23;;;;;;;3.77;3.43;;;;;;;;;;5007526;28;20702;-77
2023/06/02 13:48:51;;;;;;;4.27;3.70;;;;;;;;;;5025535;28;20246;-77
2023/06/02 13:51:18;;;;;;;4.90;3.83;;;;;;;;;;5038285;28;20198;-77
2023/06/02 13:53:44;;;;;;;5.57;3.93;;;;;;;;;;5047227;28;20201;-77
2023/06/02 13:56:12;;;;;;;4.80;3.17;;;;;;;;;;5047597;28;20202;-77
2023/06/02 13:58:39;;;;;;;5.23;3.60;;;;;;;;;;5047207;28;20255;-77
2023/06/02 14:01:06;;;;;;;5.10;2.87;;;;;;;;;;5047340;28;20254;-77
2023/06/02 14:03:33;;;;;;;4.53;3.20;;;;;;;;;;5047376;28;20190;-78
2023/06/02 14:06:02;;;;;;;3.77;3.40;;;;;;;;;;5047998;28;20198;-76
2023/06/02 14:08:29;;;;;;;3.90;3.60;;;;;;;;;;5046858;28;20267;-77
2023/06/02 14:10:55;;;;;;;5.77;3.90;;;;;;;;;;5047611;28;20633;-77
2023/06/02 14:13:22;;;;;;;3.50;3.20;;;;;;;;;;5046879;28;20208;-77
2023/06/02 14:15:49;;;;;;;4.30;3.23;;;;;;;;;;5047295;28;20629;-77
2023/06/02 14:18:16;;;;;;;3.83;3.47;;;;;;;;;;5046602;28;20220;-77
2023/06/02 14:20:43;;;;;;;6.13;3.77;;;;;;;;;;5047324;28;20209;-77
2023/06/02 14:23:11;;;;;;;5.37;3.87;;;;;;;;;;5046986;28;20202;-77
2023/06/02 14:25:38;;;;;;;4.70;3.70;;;;;;;;;;5046823;28;20772;-80
2023/06/02 14:28:04;;;;;;;5.73;3.43;;;;;;;;;;5047080;28;20198;-77
2023/06/02 14:30:31;;;;;;;4.00;3.57;;;;;;;;;;5047286;28;20668;-77
2023/06/02 14:32:58;;;;;;;4.53;4.13;;;;;;;;;;5046743;28;20210;-77
2023/06/02 14:35:25;;;;;;;3.87;3.57;;;;;;;;;;5047233;28;20633;-77
2023/06/02 14:37:52;;;;;;;5.03;3.87;;;;;;;;;;5047045;28;20220;-77
2023/06/02 14:40:20;;;;;;;5.03;3.50;;;;;;;;;;5046920;28;20209;-77
2023/06/02 14:42:47;;;;;;;4.43;3.90;;;;;;;;;;5046637;28;20255;-77
2023/06/02 14:45:14;;;;;;;3.70;3.40;;;;;;;;;;5047076;28;20279;-77
2023/06/02 14:47:40;;;;;;;4.67;3.70;;;;;;;;;;5046452;28;20198;-77
2023/06/02 14:50:08;;;;;;;4.20;3.80;;;;;;;;;;5044304;28;20564;-77